Terminal Aerodrome Forecast
Issued by NWS

Home | Current Version | Previous Version | Text Only | Print | Product List | Glossary On
Versions: 1 2 3 4 5 6 7 8 9 10 11 12 13 14 15 16 17 18 19 20 21 22 23 24 25 26 27 28 29 30
896
FTUS41 KBOX 011723
TAFBAF
TAF
KBAF 011723Z 0118/0218 16006KT P6SM -SHRA OVC040
     FM020000 00000KT 4SM -DZ OVC025
     FM020500 00000KT 4SM -DZ BKN015
     FM021000 VRB03KT 3SM BR VCSH BKN010
     FM021200 VRB03KT 6SM BR VCSH OVC010=

USA.gov is the U.S. government's official web portal to all federal, state and local government web resources and services.